WWA2660 KSAT-KELP
Flight info
| Callsign | WWA2660 |
|---|---|
| Flight time | 2h 41m |
| Altitude | FL120 |
| Route | ALISS7 ALISS FST FABAN |
| Aircraft | K100/L-SBDGRY/S |
Departure
| Time | 2026-05-08 13:15 |
|---|---|
| Airport | San Antonio International Airport (KSAT) |
Arrival
| Time | 2026-05-08 15:56 |
|---|---|
| Airport | El Paso International Airport (KELP) |
| Time | Latitude | Longitude | Altitude | Speed | Heading |
|---|---|---|---|---|---|
| 2026-05-08 13:05 | 29.53260 | -98.45760 | 773 ft | 0 kts | 318° |
| 2026-05-08 13:08 | 29.53264 | -98.45764 | 773 ft | 4 kts | 315° |
| 2026-05-08 13:08 | 29.53297 | -98.45804 | 772 ft | 8 kts | 326° |
| 2026-05-08 13:09 | 29.53355 | -98.45804 | 772 ft | 10 kts | 33° |
| 2026-05-08 13:09 | 29.53410 | -98.45753 | 772 ft | 11 kts | 37° |
| 2026-05-08 13:09 | 29.53471 | -98.45685 | 769 ft | 14 kts | 50° |
| 2026-05-08 13:09 | 29.53548 | -98.45612 | 768 ft | 15 kts | 39° |
| 2026-05-08 13:10 | 29.53630 | -98.45534 | 766 ft | 16 kts | 39° |
| 2026-05-08 13:10 | 29.53716 | -98.45450 | 762 ft | 17 kts | 39° |
| 2026-05-08 13:10 | 29.53810 | -98.45356 | 757 ft | 19 kts | 41° |
| 2026-05-08 13:10 | 29.53888 | -98.45277 | 754 ft | 11 kts | 38° |
| 2026-05-08 13:11 | 29.53940 | -98.45241 | 753 ft | 7 kts | 9° |
| 2026-05-08 13:11 | 29.53963 | -98.45247 | 752 ft | 0 kts | 326° |
| 2026-05-08 13:13 | 29.53978 | -98.45261 | 752 ft | 6 kts | 315° |
| 2026-05-08 13:13 | 29.54002 | -98.45315 | 752 ft | 9 kts | 269° |
| 2026-05-08 13:14 | 29.53924 | -98.45407 | 755 ft | 37 kts | 221° |
| 2026-05-08 13:14 | 29.53588 | -98.45737 | 768 ft | 86 kts | 220° |
| 2026-05-08 13:14 | 29.53115 | -98.46224 | 967 ft | 93 kts | 225° |
| 2026-05-08 13:14 | 29.52604 | -98.46768 | 1115 ft | 105 kts | 220° |
| 2026-05-08 13:15 | 29.52038 | -98.47339 | 1276 ft | 112 kts | 221° |
| 2026-05-08 13:15 | 29.51440 | -98.47939 | 1447 ft | 115 kts | 221° |
| 2026-05-08 13:15 | 29.50964 | -98.48664 | 1600 ft | 116 kts | 253° |
| 2026-05-08 13:15 | 29.51041 | -98.49549 | 1773 ft | 113 kts | 299° |
| 2026-05-08 13:16 | 29.51598 | -98.50153 | 1962 ft | 110 kts | 326° |
| 2026-05-08 13:16 | 29.52246 | -98.50620 | 2137 ft | 112 kts | 329° |
| 2026-05-08 13:16 | 29.52926 | -98.51063 | 2346 ft | 115 kts | 331° |
| 2026-05-08 13:16 | 29.53656 | -98.51509 | 2542 ft | 120 kts | 332° |
| 2026-05-08 13:17 | 29.54387 | -98.51940 | 2833 ft | 117 kts | 333° |
| 2026-05-08 13:17 | 29.55105 | -98.52354 | 3097 ft | 116 kts | 333° |
| 2026-05-08 13:17 | 29.55824 | -98.52764 | 3343 ft | 116 kts | 334° |
| 2026-05-08 13:17 | 29.56552 | -98.53177 | 3581 ft | 117 kts | 334° |
| 2026-05-08 13:18 | 29.57287 | -98.53592 | 3798 ft | 119 kts | 334° |
| 2026-05-08 13:18 | 29.58036 | -98.54015 | 4011 ft | 122 kts | 334° |
| 2026-05-08 13:18 | 29.58800 | -98.54445 | 4220 ft | 124 kts | 333° |
| 2026-05-08 13:18 | 29.59583 | -98.54886 | 4427 ft | 126 kts | 333° |
| 2026-05-08 13:19 | 29.60371 | -98.55329 | 4636 ft | 127 kts | 333° |
| 2026-05-08 13:19 | 29.61164 | -98.55777 | 4839 ft | 128 kts | 332° |
| 2026-05-08 13:19 | 29.61965 | -98.56228 | 5038 ft | 129 kts | 332° |
| 2026-05-08 13:19 | 29.62774 | -98.56684 | 5232 ft | 131 kts | 331° |
| 2026-05-08 13:20 | 29.63589 | -98.57143 | 5428 ft | 131 kts | 330° |
| 2026-05-08 13:20 | 29.64411 | -98.57606 | 5618 ft | 133 kts | 330° |
| 2026-05-08 13:20 | 29.65246 | -98.58076 | 5806 ft | 134 kts | 330° |
| 2026-05-08 13:20 | 29.66081 | -98.58549 | 5991 ft | 134 kts | 330° |
| 2026-05-08 13:21 | 29.66921 | -98.59022 | 6172 ft | 135 kts | 329° |
| 2026-05-08 13:21 | 29.67766 | -98.59498 | 6344 ft | 136 kts | 329° |
| 2026-05-08 13:21 | 29.68622 | -98.59980 | 6509 ft | 138 kts | 328° |
| 2026-05-08 13:21 | 29.69486 | -98.60468 | 6673 ft | 139 kts | 328° |
| 2026-05-08 13:22 | 29.70355 | -98.60958 | 6845 ft | 139 kts | 328° |
| 2026-05-08 13:22 | 29.71229 | -98.61453 | 7014 ft | 140 kts | 328° |
| 2026-05-08 13:22 | 29.72098 | -98.61946 | 7178 ft | 140 kts | 328° |
| 2026-05-08 13:22 | 29.72978 | -98.62443 | 7364 ft | 143 kts | 328° |
| 2026-05-08 13:23 | 29.73862 | -98.62943 | 7617 ft | 142 kts | 328° |
| 2026-05-08 13:23 | 29.74743 | -98.63440 | 7864 ft | 142 kts | 328° |
| 2026-05-08 13:23 | 29.75625 | -98.63938 | 8099 ft | 142 kts | 327° |
| 2026-05-08 13:23 | 29.76509 | -98.64438 | 8326 ft | 142 kts | 328° |
| 2026-05-08 13:24 | 29.77403 | -98.64944 | 8548 ft | 143 kts | 328° |
| 2026-05-08 13:24 | 29.78270 | -98.65485 | 8769 ft | 140 kts | 311° |
| 2026-05-08 13:24 | 29.78886 | -98.66316 | 8969 ft | 137 kts | 299° |
| 2026-05-08 13:24 | 29.79478 | -98.67182 | 9190 ft | 139 kts | 300° |
| 2026-05-08 13:25 | 29.80079 | -98.68041 | 9435 ft | 138 kts | 301° |
| 2026-05-08 13:25 | 29.80681 | -98.68895 | 9671 ft | 138 kts | 301° |
| 2026-05-08 13:25 | 29.81282 | -98.69746 | 9898 ft | 138 kts | 301° |
| 2026-05-08 13:25 | 29.81888 | -98.70604 | 10125 ft | 137 kts | 301° |
| 2026-05-08 13:26 | 29.82487 | -98.71449 | 10358 ft | 136 kts | 301° |
| 2026-05-08 13:26 | 29.83080 | -98.72286 | 10591 ft | 135 kts | 301° |
| 2026-05-08 13:26 | 29.83666 | -98.73114 | 10819 ft | 133 kts | 301° |
| 2026-05-08 13:26 | 29.84246 | -98.73934 | 11042 ft | 132 kts | 301° |
| 2026-05-08 13:27 | 29.84822 | -98.74750 | 11272 ft | 131 kts | 301° |
| 2026-05-08 13:27 | 29.85392 | -98.75557 | 11507 ft | 130 kts | 301° |
| 2026-05-08 13:27 | 29.85961 | -98.76360 | 11738 ft | 129 kts | 301° |
| 2026-05-08 13:27 | 29.86520 | -98.77149 | 11959 ft | 128 kts | 300° |
| 2026-05-08 13:28 | 29.87096 | -98.77971 | 12036 ft | 139 kts | 301° |
| 2026-05-08 13:28 | 29.87730 | -98.78871 | 12043 ft | 151 kts | 302° |
| 2026-05-08 13:28 | 29.88414 | -98.79835 | 12036 ft | 160 kts | 303° |
| 2026-05-08 13:28 | 29.89129 | -98.80839 | 12023 ft | 165 kts | 303° |
| 2026-05-08 13:29 | 29.89863 | -98.81869 | 12013 ft | 168 kts | 303° |
| 2026-05-08 13:29 | 29.90611 | -98.82920 | 12010 ft | 169 kts | 303° |
| 2026-05-08 13:29 | 29.91358 | -98.83970 | 12008 ft | 170 kts | 303° |
| 2026-05-08 13:29 | 29.92109 | -98.85026 | 12007 ft | 171 kts | 303° |
| 2026-05-08 13:30 | 29.92859 | -98.86085 | 12005 ft | 171 kts | 303° |
| 2026-05-08 13:30 | 29.93608 | -98.87140 | 12003 ft | 170 kts | 303° |
| 2026-05-08 13:30 | 29.94348 | -98.88183 | 12000 ft | 167 kts | 303° |
| 2026-05-08 13:30 | 29.95080 | -98.89217 | 12003 ft | 167 kts | 303° |
| 2026-05-08 13:31 | 29.95816 | -98.90257 | 12003 ft | 166 kts | 303° |
| 2026-05-08 13:31 | 29.96546 | -98.91289 | 12002 ft | 166 kts | 303° |
| 2026-05-08 13:31 | 29.97275 | -98.92320 | 12000 ft | 166 kts | 303° |
| 2026-05-08 13:31 | 29.98005 | -98.93352 | 11999 ft | 166 kts | 303° |
| 2026-05-08 13:32 | 29.98734 | -98.94384 | 11999 ft | 166 kts | 303° |
| 2026-05-08 13:32 | 29.99464 | -98.95417 | 11999 ft | 166 kts | 303° |
| 2026-05-08 13:32 | 30.00193 | -98.96449 | 12000 ft | 167 kts | 303° |
| 2026-05-08 13:32 | 30.00930 | -98.97491 | 12001 ft | 167 kts | 303° |
| 2026-05-08 13:33 | 30.01659 | -98.98524 | 12004 ft | 166 kts | 303° |
| 2026-05-08 13:33 | 30.02388 | -98.99556 | 12004 ft | 166 kts | 303° |
| 2026-05-08 13:33 | 30.03115 | -99.00586 | 12004 ft | 166 kts | 303° |
| 2026-05-08 13:33 | 30.03840 | -99.01613 | 12003 ft | 165 kts | 303° |
| 2026-05-08 13:34 | 30.04564 | -99.02638 | 12003 ft | 165 kts | 303° |
| 2026-05-08 13:34 | 30.05286 | -99.03662 | 12003 ft | 165 kts | 303° |
| 2026-05-08 13:34 | 30.06011 | -99.04690 | 12004 ft | 164 kts | 303° |
| 2026-05-08 13:34 | 30.06730 | -99.05711 | 12005 ft | 164 kts | 303° |
| 2026-05-08 13:35 | 30.07448 | -99.06731 | 12005 ft | 164 kts | 303° |
| 2026-05-08 13:35 | 30.08167 | -99.07750 | 12006 ft | 164 kts | 303° |
| 2026-05-08 13:35 | 30.08886 | -99.08771 | 12007 ft | 164 kts | 303° |
| 2026-05-08 13:35 | 30.09604 | -99.09791 | 12007 ft | 164 kts | 303° |
| 2026-05-08 13:36 | 30.10324 | -99.10813 | 12007 ft | 164 kts | 303° |
| 2026-05-08 13:36 | 30.11049 | -99.11841 | 12008 ft | 164 kts | 303° |
| 2026-05-08 13:36 | 30.11544 | -99.12980 | 12017 ft | 158 kts | 282° |
| 2026-05-08 13:36 | 30.11849 | -99.14196 | 12011 ft | 159 kts | 283° |
| 2026-05-08 13:37 | 30.12167 | -99.15417 | 12010 ft | 159 kts | 283° |
| 2026-05-08 13:37 | 30.12485 | -99.16635 | 12010 ft | 159 kts | 283° |
| 2026-05-08 13:37 | 30.12804 | -99.17855 | 12010 ft | 159 kts | 283° |
| 2026-05-08 13:37 | 30.13125 | -99.19075 | 12014 ft | 159 kts | 283° |
| 2026-05-08 13:38 | 30.13449 | -99.20304 | 12025 ft | 160 kts | 283° |
| 2026-05-08 13:38 | 30.13771 | -99.21526 | 12032 ft | 160 kts | 283° |
| 2026-05-08 13:38 | 30.14095 | -99.22752 | 12039 ft | 160 kts | 283° |
| 2026-05-08 13:38 | 30.14420 | -99.23981 | 12040 ft | 161 kts | 283° |
| 2026-05-08 13:39 | 30.14744 | -99.25209 | 12037 ft | 160 kts | 283° |
| 2026-05-08 13:39 | 30.15068 | -99.26434 | 12038 ft | 160 kts | 283° |
| 2026-05-08 13:39 | 30.15392 | -99.27659 | 12038 ft | 160 kts | 283° |
| 2026-05-08 13:39 | 30.15717 | -99.28891 | 12041 ft | 160 kts | 283° |
| 2026-05-08 13:40 | 30.16040 | -99.30114 | 12042 ft | 160 kts | 283° |
| 2026-05-08 13:40 | 30.16363 | -99.31341 | 12039 ft | 160 kts | 283° |
| 2026-05-08 13:40 | 30.16686 | -99.32565 | 12043 ft | 160 kts | 283° |
| 2026-05-08 13:40 | 30.17008 | -99.33790 | 12043 ft | 160 kts | 283° |
| 2026-05-08 13:41 | 30.17330 | -99.35014 | 12043 ft | 160 kts | 283° |
| 2026-05-08 13:41 | 30.17652 | -99.36241 | 12044 ft | 160 kts | 283° |
| 2026-05-08 13:41 | 30.17978 | -99.37476 | 12044 ft | 160 kts | 283° |
| 2026-05-08 13:41 | 30.18300 | -99.38702 | 12044 ft | 160 kts | 283° |
| 2026-05-08 13:42 | 30.18622 | -99.39930 | 12044 ft | 160 kts | 283° |
| 2026-05-08 13:42 | 30.18944 | -99.41157 | 12045 ft | 160 kts | 282° |
| 2026-05-08 13:42 | 30.19020 | -99.42414 | 12054 ft | 157 kts | 268° |
| 2026-05-08 13:42 | 30.19086 | -99.43679 | 12046 ft | 159 kts | 273° |
| 2026-05-08 13:43 | 30.19227 | -99.44939 | 12045 ft | 159 kts | 276° |
| 2026-05-08 13:43 | 30.19420 | -99.46203 | 12046 ft | 159 kts | 278° |
| 2026-05-08 13:43 | 30.19641 | -99.47453 | 12046 ft | 159 kts | 279° |
| 2026-05-08 13:43 | 30.19884 | -99.48699 | 12047 ft | 160 kts | 280° |
| 2026-05-08 13:44 | 30.20142 | -99.49941 | 12046 ft | 160 kts | 280° |
| 2026-05-08 13:44 | 30.20408 | -99.51181 | 12048 ft | 160 kts | 281° |
| 2026-05-08 13:44 | 30.20681 | -99.52420 | 12047 ft | 160 kts | 281° |
| 2026-05-08 13:44 | 30.20959 | -99.53658 | 12048 ft | 160 kts | 281° |
| 2026-05-08 13:45 | 30.21242 | -99.54905 | 12047 ft | 160 kts | 281° |
| 2026-05-08 13:45 | 30.21524 | -99.56141 | 12048 ft | 160 kts | 281° |
| 2026-05-08 13:45 | 30.21807 | -99.57378 | 12048 ft | 160 kts | 281° |
| 2026-05-08 13:45 | 30.22090 | -99.58615 | 12048 ft | 160 kts | 281° |
| 2026-05-08 13:46 | 30.22374 | -99.59852 | 12048 ft | 160 kts | 281° |
| 2026-05-08 13:46 | 30.22658 | -99.61089 | 12049 ft | 160 kts | 281° |
| 2026-05-08 13:46 | 30.22942 | -99.62325 | 12049 ft | 160 kts | 281° |
| 2026-05-08 13:46 | 30.23228 | -99.63569 | 12049 ft | 160 kts | 281° |
| 2026-05-08 13:47 | 30.23512 | -99.64807 | 12050 ft | 160 kts | 282° |
| 2026-05-08 13:47 | 30.23796 | -99.66044 | 12047 ft | 160 kts | 281° |
| 2026-05-08 13:47 | 30.24083 | -99.67292 | 12021 ft | 162 kts | 281° |
| 2026-05-08 13:47 | 30.24371 | -99.68544 | 12019 ft | 162 kts | 281° |
| 2026-05-08 13:48 | 30.24658 | -99.69794 | 12018 ft | 161 kts | 281° |
| 2026-05-08 13:48 | 30.24944 | -99.71043 | 12018 ft | 161 kts | 281° |
| 2026-05-08 13:48 | 30.25232 | -99.72300 | 12019 ft | 161 kts | 281° |
| 2026-05-08 13:48 | 30.25517 | -99.73551 | 12019 ft | 161 kts | 281° |
| 2026-05-08 13:49 | 30.25804 | -99.74800 | 12020 ft | 161 kts | 281° |
| 2026-05-08 13:49 | 30.26091 | -99.76051 | 12020 ft | 162 kts | 281° |
| 2026-05-08 13:49 | 30.26376 | -99.77301 | 12019 ft | 162 kts | 281° |
| 2026-05-08 13:49 | 30.26662 | -99.78555 | 12019 ft | 162 kts | 281° |
| 2026-05-08 13:50 | 30.26949 | -99.79807 | 12020 ft | 162 kts | 281° |
| 2026-05-08 13:50 | 30.27237 | -99.81068 | 12019 ft | 162 kts | 281° |
| 2026-05-08 13:50 | 30.27523 | -99.82322 | 12019 ft | 162 kts | 281° |
| 2026-05-08 13:50 | 30.27810 | -99.83574 | 12019 ft | 162 kts | 281° |
| 2026-05-08 13:51 | 30.28096 | -99.84828 | 12020 ft | 162 kts | 281° |
| 2026-05-08 13:51 | 30.28381 | -99.86080 | 12019 ft | 162 kts | 281° |
| 2026-05-08 13:51 | 30.28667 | -99.87334 | 12018 ft | 162 kts | 281° |
| 2026-05-08 13:51 | 30.28953 | -99.88589 | 12019 ft | 162 kts | 281° |
| 2026-05-08 13:52 | 30.29241 | -99.89851 | 12018 ft | 162 kts | 281° |
| 2026-05-08 13:52 | 30.29526 | -99.91104 | 12018 ft | 162 kts | 281° |
| 2026-05-08 13:52 | 30.29811 | -99.92356 | 12018 ft | 162 kts | 281° |
| 2026-05-08 13:52 | 30.30095 | -99.93611 | 12018 ft | 162 kts | 281° |
| 2026-05-08 13:53 | 30.30381 | -99.94865 | 12018 ft | 162 kts | 281° |
| 2026-05-08 13:53 | 30.30666 | -99.96118 | 12018 ft | 162 kts | 281° |
| 2026-05-08 13:53 | 30.30951 | -99.97372 | 12018 ft | 162 kts | 281° |
| 2026-05-08 13:53 | 30.31238 | -99.98635 | 12018 ft | 162 kts | 281° |
| 2026-05-08 13:54 | 30.31522 | -99.99888 | 12018 ft | 162 kts | 281° |
| 2026-05-08 13:54 | 30.31805 | -100.01140 | 12018 ft | 162 kts | 281° |
| 2026-05-08 13:54 | 30.32090 | -100.02394 | 12018 ft | 162 kts | 281° |
| 2026-05-08 13:54 | 30.32373 | -100.03647 | 12018 ft | 162 kts | 281° |
| 2026-05-08 13:55 | 30.32656 | -100.04899 | 12018 ft | 162 kts | 281° |
| 2026-05-08 13:55 | 30.32940 | -100.06152 | 12019 ft | 162 kts | 281° |
| 2026-05-08 13:55 | 30.33509 | -100.08668 | 12019 ft | 162 kts | 281° |
| 2026-05-08 13:56 | 30.33792 | -100.09920 | 12019 ft | 162 kts | 281° |
| 2026-05-08 13:56 | 30.34076 | -100.11172 | 12019 ft | 162 kts | 281° |
| 2026-05-08 13:56 | 30.34359 | -100.12426 | 12020 ft | 162 kts | 281° |
| 2026-05-08 13:56 | 30.34642 | -100.13679 | 12020 ft | 161 kts | 281° |
| 2026-05-08 13:57 | 30.34925 | -100.14933 | 12021 ft | 161 kts | 281° |
| 2026-05-08 13:57 | 30.35208 | -100.16195 | 12021 ft | 161 kts | 281° |
| 2026-05-08 13:57 | 30.35490 | -100.17448 | 12022 ft | 161 kts | 281° |
| 2026-05-08 13:57 | 30.35772 | -100.18701 | 12022 ft | 161 kts | 281° |
| 2026-05-08 13:58 | 30.36055 | -100.19955 | 12018 ft | 162 kts | 281° |
| 2026-05-08 13:58 | 30.36338 | -100.21209 | 12013 ft | 162 kts | 281° |
| 2026-05-08 13:58 | 30.36621 | -100.22466 | 12008 ft | 162 kts | 281° |
| 2026-05-08 13:58 | 30.36904 | -100.23723 | 12004 ft | 162 kts | 281° |
| 2026-05-08 13:59 | 30.37189 | -100.24990 | 12003 ft | 162 kts | 281° |
| 2026-05-08 13:59 | 30.37469 | -100.26244 | 12004 ft | 162 kts | 281° |
| 2026-05-08 13:59 | 30.37750 | -100.27498 | 12005 ft | 162 kts | 281° |
| 2026-05-08 13:59 | 30.38032 | -100.28753 | 12006 ft | 161 kts | 281° |
| 2026-05-08 14:00 | 30.38312 | -100.30005 | 12009 ft | 161 kts | 281° |
| 2026-05-08 14:00 | 30.38593 | -100.31257 | 12011 ft | 161 kts | 281° |
| 2026-05-08 14:00 | 30.38873 | -100.32509 | 12014 ft | 161 kts | 281° |
| 2026-05-08 14:00 | 30.39156 | -100.33771 | 12017 ft | 161 kts | 281° |
| 2026-05-08 14:01 | 30.39436 | -100.35023 | 12018 ft | 161 kts | 281° |
| 2026-05-08 14:01 | 30.39717 | -100.36274 | 12019 ft | 161 kts | 281° |
| 2026-05-08 14:01 | 30.39997 | -100.37528 | 12019 ft | 161 kts | 281° |
| 2026-05-08 14:01 | 30.40277 | -100.38780 | 12021 ft | 161 kts | 281° |
| 2026-05-08 14:02 | 30.40558 | -100.40035 | 12021 ft | 162 kts | 281° |
| 2026-05-08 14:02 | 30.40838 | -100.41289 | 12023 ft | 162 kts | 281° |
| 2026-05-08 14:02 | 30.41120 | -100.42554 | 12024 ft | 162 kts | 281° |
| 2026-05-08 14:02 | 30.41401 | -100.43813 | 12024 ft | 162 kts | 281° |
| 2026-05-08 14:03 | 30.41681 | -100.45071 | 12025 ft | 162 kts | 281° |
| 2026-05-08 14:03 | 30.41962 | -100.46332 | 12027 ft | 162 kts | 281° |
| 2026-05-08 14:03 | 30.42243 | -100.47593 | 12028 ft | 162 kts | 281° |
| 2026-05-08 14:03 | 30.42523 | -100.48854 | 12029 ft | 162 kts | 281° |
| 2026-05-08 14:04 | 30.42802 | -100.50115 | 12029 ft | 162 kts | 281° |
| 2026-05-08 14:04 | 30.43085 | -100.51386 | 12030 ft | 162 kts | 281° |
| 2026-05-08 14:04 | 30.43366 | -100.52647 | 12029 ft | 162 kts | 281° |
| 2026-05-08 14:04 | 30.43647 | -100.53910 | 12030 ft | 162 kts | 281° |
| 2026-05-08 14:05 | 30.43928 | -100.55172 | 12030 ft | 162 kts | 281° |
| 2026-05-08 14:05 | 30.44208 | -100.56434 | 12030 ft | 162 kts | 281° |
| 2026-05-08 14:05 | 30.44489 | -100.57696 | 12031 ft | 162 kts | 281° |
| 2026-05-08 14:05 | 30.44769 | -100.58960 | 12032 ft | 162 kts | 281° |
| 2026-05-08 14:06 | 30.45051 | -100.60233 | 12032 ft | 163 kts | 281° |
| 2026-05-08 14:06 | 30.45331 | -100.61497 | 12032 ft | 163 kts | 281° |
| 2026-05-08 14:06 | 30.45611 | -100.62764 | 12032 ft | 163 kts | 281° |
| 2026-05-08 14:06 | 30.45891 | -100.64030 | 12031 ft | 163 kts | 281° |
| 2026-05-08 14:07 | 30.46172 | -100.65298 | 12032 ft | 163 kts | 281° |
| 2026-05-08 14:07 | 30.46452 | -100.66564 | 12035 ft | 163 kts | 280° |
| 2026-05-08 14:07 | 30.46732 | -100.67831 | 12036 ft | 163 kts | 281° |
| 2026-05-08 14:07 | 30.47014 | -100.69109 | 12035 ft | 163 kts | 280° |
| 2026-05-08 14:08 | 30.47294 | -100.70379 | 12034 ft | 163 kts | 281° |
| 2026-05-08 14:08 | 30.47574 | -100.71649 | 12033 ft | 163 kts | 281° |
| 2026-05-08 14:08 | 30.47855 | -100.72918 | 12033 ft | 163 kts | 280° |
| 2026-05-08 14:08 | 30.48134 | -100.74189 | 12030 ft | 163 kts | 280° |
| 2026-05-08 14:09 | 30.48413 | -100.75458 | 12028 ft | 163 kts | 281° |
| 2026-05-08 14:09 | 30.48692 | -100.76727 | 12028 ft | 163 kts | 281° |
| 2026-05-08 14:09 | 30.48974 | -100.78001 | 12028 ft | 163 kts | 280° |
| 2026-05-08 14:09 | 30.49253 | -100.79265 | 12031 ft | 163 kts | 280° |
| 2026-05-08 14:10 | 30.49531 | -100.80532 | 12033 ft | 163 kts | 280° |
| 2026-05-08 14:10 | 30.49810 | -100.81799 | 12033 ft | 163 kts | 280° |
| 2026-05-08 14:10 | 30.50088 | -100.83068 | 12033 ft | 163 kts | 280° |
| 2026-05-08 14:10 | 30.50367 | -100.84338 | 12032 ft | 163 kts | 280° |
| 2026-05-08 14:11 | 30.50645 | -100.85609 | 12032 ft | 163 kts | 280° |
| 2026-05-08 14:11 | 30.50926 | -100.86890 | 12031 ft | 163 kts | 280° |
| 2026-05-08 14:11 | 30.51205 | -100.88161 | 12031 ft | 163 kts | 280° |
| 2026-05-08 14:11 | 30.51483 | -100.89434 | 12031 ft | 163 kts | 280° |
| 2026-05-08 14:12 | 30.51762 | -100.90706 | 12031 ft | 164 kts | 280° |
| 2026-05-08 14:12 | 30.52041 | -100.91981 | 12030 ft | 164 kts | 280° |
| 2026-05-08 14:12 | 30.52321 | -100.93254 | 12030 ft | 164 kts | 281° |
| 2026-05-08 14:12 | 30.52600 | -100.94534 | 12030 ft | 164 kts | 281° |
| 2026-05-08 14:13 | 30.52882 | -100.95821 | 12029 ft | 164 kts | 281° |
| 2026-05-08 14:13 | 30.53161 | -100.97099 | 12030 ft | 164 kts | 280° |
| 2026-05-08 14:13 | 30.53441 | -100.98379 | 12029 ft | 164 kts | 281° |
| 2026-05-08 14:13 | 30.53720 | -100.99657 | 12029 ft | 164 kts | 281° |
| 2026-05-08 14:14 | 30.53999 | -101.00938 | 12026 ft | 164 kts | 280° |
| 2026-05-08 14:14 | 30.54278 | -101.02219 | 12024 ft | 165 kts | 281° |
| 2026-05-08 14:14 | 30.54558 | -101.03500 | 12021 ft | 165 kts | 280° |
| 2026-05-08 14:14 | 30.54839 | -101.04793 | 12018 ft | 165 kts | 280° |
| 2026-05-08 14:15 | 30.55119 | -101.06074 | 12018 ft | 165 kts | 280° |
| 2026-05-08 14:15 | 30.55397 | -101.07358 | 12017 ft | 165 kts | 280° |
| 2026-05-08 14:15 | 30.55675 | -101.08640 | 12017 ft | 165 kts | 280° |
| 2026-05-08 14:15 | 30.55955 | -101.09921 | 12017 ft | 165 kts | 280° |
| 2026-05-08 14:16 | 30.56233 | -101.11203 | 12017 ft | 164 kts | 280° |
| 2026-05-08 14:16 | 30.56512 | -101.12486 | 12016 ft | 165 kts | 280° |
| 2026-05-08 14:16 | 30.56792 | -101.13778 | 12016 ft | 165 kts | 280° |
| 2026-05-08 14:16 | 30.57070 | -101.15061 | 12016 ft | 165 kts | 280° |
| 2026-05-08 14:17 | 30.57347 | -101.16343 | 12016 ft | 165 kts | 280° |
| 2026-05-08 14:17 | 30.57625 | -101.17625 | 12016 ft | 165 kts | 280° |
| 2026-05-08 14:17 | 30.57902 | -101.18907 | 12016 ft | 165 kts | 280° |
| 2026-05-08 14:17 | 30.58179 | -101.20190 | 12016 ft | 165 kts | 280° |
| 2026-05-08 14:18 | 30.58457 | -101.21472 | 12018 ft | 165 kts | 280° |
| 2026-05-08 14:18 | 30.58737 | -101.22765 | 12017 ft | 165 kts | 280° |
| 2026-05-08 14:18 | 30.59015 | -101.24049 | 12018 ft | 165 kts | 280° |
| 2026-05-08 14:18 | 30.59293 | -101.25333 | 12017 ft | 165 kts | 280° |
| 2026-05-08 14:19 | 30.59571 | -101.26616 | 12018 ft | 165 kts | 280° |
| 2026-05-08 14:19 | 30.59848 | -101.27901 | 12017 ft | 165 kts | 280° |
| 2026-05-08 14:19 | 30.60125 | -101.29186 | 12017 ft | 165 kts | 280° |
| 2026-05-08 14:19 | 30.60402 | -101.30471 | 12017 ft | 165 kts | 280° |
| 2026-05-08 14:20 | 30.60681 | -101.31766 | 12016 ft | 165 kts | 280° |
| 2026-05-08 14:20 | 30.60957 | -101.33049 | 12016 ft | 165 kts | 280° |
| 2026-05-08 14:20 | 30.61234 | -101.34335 | 12016 ft | 165 kts | 280° |
| 2026-05-08 14:20 | 30.61510 | -101.35622 | 12014 ft | 165 kts | 280° |
| 2026-05-08 14:21 | 30.61786 | -101.36907 | 12013 ft | 165 kts | 280° |
| 2026-05-08 14:21 | 30.62062 | -101.38189 | 12013 ft | 165 kts | 280° |
| 2026-05-08 14:21 | 30.62337 | -101.39474 | 12012 ft | 164 kts | 280° |
| 2026-05-08 14:21 | 30.62615 | -101.40765 | 12014 ft | 164 kts | 280° |
| 2026-05-08 14:22 | 30.62891 | -101.42048 | 12014 ft | 164 kts | 280° |
| 2026-05-08 14:22 | 30.63166 | -101.43330 | 12014 ft | 165 kts | 280° |
| 2026-05-08 14:22 | 30.63441 | -101.44616 | 12014 ft | 165 kts | 280° |
| 2026-05-08 14:22 | 30.63717 | -101.45901 | 12013 ft | 165 kts | 280° |
| 2026-05-08 14:23 | 30.63992 | -101.47186 | 12014 ft | 165 kts | 280° |
| 2026-05-08 14:23 | 30.64267 | -101.48473 | 12013 ft | 165 kts | 280° |
| 2026-05-08 14:23 | 30.64543 | -101.49769 | 12013 ft | 165 kts | 280° |
| 2026-05-08 14:23 | 30.64818 | -101.51054 | 12013 ft | 165 kts | 280° |
| 2026-05-08 14:24 | 30.65093 | -101.52338 | 12012 ft | 165 kts | 280° |
| 2026-05-08 14:24 | 30.65368 | -101.53623 | 12013 ft | 165 kts | 280° |
| 2026-05-08 14:24 | 30.65643 | -101.54908 | 12013 ft | 165 kts | 280° |
| 2026-05-08 14:24 | 30.65918 | -101.56194 | 12013 ft | 165 kts | 280° |
| 2026-05-08 14:25 | 30.66191 | -101.57479 | 12014 ft | 165 kts | 280° |
| 2026-05-08 14:25 | 30.66467 | -101.58774 | 12015 ft | 165 kts | 280° |
| 2026-05-08 14:25 | 30.66741 | -101.60059 | 12015 ft | 165 kts | 280° |
| 2026-05-08 14:25 | 30.67015 | -101.61345 | 12014 ft | 165 kts | 280° |
| 2026-05-08 14:26 | 30.67289 | -101.62631 | 12015 ft | 165 kts | 280° |
| 2026-05-08 14:26 | 30.67562 | -101.63915 | 12015 ft | 165 kts | 280° |
| 2026-05-08 14:26 | 30.67835 | -101.65202 | 12016 ft | 165 kts | 279° |
| 2026-05-08 14:26 | 30.68107 | -101.66489 | 12020 ft | 165 kts | 279° |
| 2026-05-08 14:27 | 30.68383 | -101.67785 | 12020 ft | 165 kts | 279° |
| 2026-05-08 14:27 | 30.68657 | -101.69075 | 12020 ft | 165 kts | 279° |
| 2026-05-08 14:27 | 30.68930 | -101.70365 | 12021 ft | 165 kts | 279° |
| 2026-05-08 14:27 | 30.69204 | -101.71657 | 12021 ft | 165 kts | 279° |
| 2026-05-08 14:28 | 30.69478 | -101.72949 | 12021 ft | 165 kts | 279° |
| 2026-05-08 14:28 | 30.69752 | -101.74241 | 12021 ft | 165 kts | 279° |
| 2026-05-08 14:28 | 30.70026 | -101.75533 | 12022 ft | 165 kts | 279° |
| 2026-05-08 14:28 | 30.70302 | -101.76834 | 12022 ft | 165 kts | 279° |
| 2026-05-08 14:29 | 30.70576 | -101.78128 | 12022 ft | 165 kts | 279° |
| 2026-05-08 14:29 | 30.70849 | -101.79420 | 12020 ft | 166 kts | 279° |
| 2026-05-08 14:29 | 30.71122 | -101.80715 | 12021 ft | 166 kts | 279° |
| 2026-05-08 14:29 | 30.71395 | -101.82009 | 12018 ft | 166 kts | 279° |
| 2026-05-08 14:30 | 30.71669 | -101.83304 | 12014 ft | 166 kts | 279° |
| 2026-05-08 14:30 | 30.71943 | -101.84599 | 12009 ft | 166 kts | 279° |
| 2026-05-08 14:30 | 30.72217 | -101.85905 | 12004 ft | 166 kts | 279° |
| 2026-05-08 14:30 | 30.72490 | -101.87202 | 12000 ft | 166 kts | 279° |
| 2026-05-08 14:31 | 30.72763 | -101.88498 | 11997 ft | 166 kts | 279° |
| 2026-05-08 14:31 | 30.73036 | -101.89794 | 11997 ft | 166 kts | 279° |
| 2026-05-08 14:31 | 30.73309 | -101.91090 | 11997 ft | 166 kts | 279° |
| 2026-05-08 14:32 | 30.73853 | -101.93681 | 11995 ft | 166 kts | 279° |
| 2026-05-08 14:32 | 30.74127 | -101.94985 | 11994 ft | 166 kts | 279° |
| 2026-05-08 14:32 | 30.74399 | -101.96279 | 11994 ft | 166 kts | 279° |
| 2026-05-08 14:32 | 30.74670 | -101.97573 | 11994 ft | 165 kts | 279° |
| 2026-05-08 14:33 | 30.74941 | -101.98869 | 11994 ft | 166 kts | 279° |
| 2026-05-08 14:33 | 30.75214 | -102.00163 | 11994 ft | 166 kts | 279° |
| 2026-05-08 14:33 | 30.75486 | -102.01459 | 11993 ft | 166 kts | 279° |
| 2026-05-08 14:33 | 30.75757 | -102.02754 | 11993 ft | 166 kts | 279° |
| 2026-05-08 14:34 | 30.76030 | -102.04059 | 11993 ft | 165 kts | 279° |
| 2026-05-08 14:34 | 30.76301 | -102.05352 | 11994 ft | 165 kts | 279° |
| 2026-05-08 14:34 | 30.76571 | -102.06646 | 11995 ft | 166 kts | 279° |
| 2026-05-08 14:34 | 30.76841 | -102.07942 | 11996 ft | 166 kts | 279° |
| 2026-05-08 14:35 | 30.77112 | -102.09239 | 11995 ft | 166 kts | 279° |
| 2026-05-08 14:35 | 30.77383 | -102.10536 | 11995 ft | 166 kts | 279° |
| 2026-05-08 14:35 | 30.77654 | -102.11836 | 11993 ft | 166 kts | 279° |
| 2026-05-08 14:35 | 30.77926 | -102.13145 | 11993 ft | 166 kts | 279° |
| 2026-05-08 14:36 | 30.78196 | -102.14444 | 11993 ft | 166 kts | 279° |
| 2026-05-08 14:36 | 30.78466 | -102.15744 | 11993 ft | 166 kts | 279° |
| 2026-05-08 14:36 | 30.78738 | -102.17045 | 11994 ft | 166 kts | 279° |
| 2026-05-08 14:36 | 30.79008 | -102.18343 | 11995 ft | 166 kts | 279° |
| 2026-05-08 14:37 | 30.79278 | -102.19640 | 11995 ft | 166 kts | 279° |
| 2026-05-08 14:37 | 30.79548 | -102.20938 | 11996 ft | 166 kts | 279° |
| 2026-05-08 14:37 | 30.79820 | -102.22244 | 11996 ft | 166 kts | 279° |
| 2026-05-08 14:37 | 30.80090 | -102.23543 | 11995 ft | 166 kts | 279° |
| 2026-05-08 14:38 | 30.80358 | -102.24839 | 11996 ft | 166 kts | 279° |
| 2026-05-08 14:38 | 30.80627 | -102.26136 | 11996 ft | 166 kts | 279° |
| 2026-05-08 14:38 | 30.80895 | -102.27432 | 11996 ft | 166 kts | 279° |
| 2026-05-08 14:38 | 30.81163 | -102.28728 | 11997 ft | 166 kts | 279° |
| 2026-05-08 14:39 | 30.81432 | -102.30024 | 11995 ft | 166 kts | 279° |
| 2026-05-08 14:39 | 30.81702 | -102.31332 | 11993 ft | 166 kts | 279° |
| 2026-05-08 14:39 | 30.81972 | -102.32631 | 11990 ft | 166 kts | 279° |
| 2026-05-08 14:39 | 30.82240 | -102.33931 | 11988 ft | 166 kts | 279° |
| 2026-05-08 14:40 | 30.82509 | -102.35231 | 11986 ft | 166 kts | 279° |
| 2026-05-08 14:40 | 30.82777 | -102.36530 | 11986 ft | 166 kts | 279° |
| 2026-05-08 14:40 | 30.83044 | -102.37829 | 11986 ft | 166 kts | 279° |
| 2026-05-08 14:40 | 30.83312 | -102.39128 | 11985 ft | 166 kts | 279° |
| 2026-05-08 14:41 | 30.83583 | -102.40437 | 11985 ft | 166 kts | 279° |
| 2026-05-08 14:41 | 30.83851 | -102.41736 | 11985 ft | 166 kts | 279° |
| 2026-05-08 14:41 | 30.84119 | -102.43034 | 11983 ft | 166 kts | 279° |
| 2026-05-08 14:41 | 30.84386 | -102.44335 | 11983 ft | 166 kts | 279° |
| 2026-05-08 14:42 | 30.84653 | -102.45634 | 11983 ft | 166 kts | 279° |
| 2026-05-08 14:42 | 30.84920 | -102.46933 | 11982 ft | 166 kts | 279° |
| 2026-05-08 14:42 | 30.85186 | -102.48232 | 11981 ft | 166 kts | 279° |
| 2026-05-08 14:42 | 30.85455 | -102.49542 | 11983 ft | 166 kts | 279° |
| 2026-05-08 14:43 | 30.85723 | -102.50842 | 11983 ft | 166 kts | 279° |
| 2026-05-08 14:43 | 30.85989 | -102.52143 | 11981 ft | 166 kts | 279° |
| 2026-05-08 14:43 | 30.86256 | -102.53446 | 11980 ft | 166 kts | 279° |
| 2026-05-08 14:43 | 30.86523 | -102.54750 | 11977 ft | 166 kts | 279° |
| 2026-05-08 14:44 | 30.86789 | -102.56052 | 11976 ft | 166 kts | 279° |
| 2026-05-08 14:44 | 30.87056 | -102.57354 | 11975 ft | 166 kts | 279° |
| 2026-05-08 14:44 | 30.87324 | -102.58665 | 11974 ft | 166 kts | 279° |
| 2026-05-08 14:44 | 30.87592 | -102.59967 | 11973 ft | 166 kts | 279° |
| 2026-05-08 14:45 | 30.87858 | -102.61267 | 11972 ft | 166 kts | 279° |
| 2026-05-08 14:45 | 30.88124 | -102.62568 | 11971 ft | 166 kts | 279° |
| 2026-05-08 14:45 | 30.88389 | -102.63870 | 11970 ft | 166 kts | 279° |
| 2026-05-08 14:45 | 30.88655 | -102.65174 | 11970 ft | 166 kts | 279° |
| 2026-05-08 14:46 | 30.88919 | -102.66473 | 11973 ft | 166 kts | 279° |
| 2026-05-08 14:46 | 30.89187 | -102.67786 | 11972 ft | 166 kts | 278° |
| 2026-05-08 14:46 | 30.89453 | -102.69091 | 11971 ft | 166 kts | 278° |
| 2026-05-08 14:46 | 30.89718 | -102.70395 | 11970 ft | 166 kts | 278° |
| 2026-05-08 14:47 | 30.89985 | -102.71700 | 11968 ft | 166 kts | 279° |
| 2026-05-08 14:47 | 30.90250 | -102.73006 | 11968 ft | 166 kts | 278° |
| 2026-05-08 14:47 | 30.90515 | -102.74313 | 11967 ft | 166 kts | 278° |
| 2026-05-08 14:47 | 30.90779 | -102.75617 | 11988 ft | 165 kts | 278° |
| 2026-05-08 14:48 | 30.91044 | -102.76919 | 11999 ft | 165 kts | 278° |
| 2026-05-08 14:48 | 30.91305 | -102.78214 | 12000 ft | 165 kts | 278° |
| 2026-05-08 14:48 | 30.91569 | -102.79512 | 11999 ft | 165 kts | 278° |
| 2026-05-08 14:48 | 30.91833 | -102.80813 | 12002 ft | 166 kts | 278° |
| 2026-05-08 14:49 | 30.92098 | -102.82113 | 12002 ft | 166 kts | 279° |
| 2026-05-08 14:49 | 30.92362 | -102.83416 | 12001 ft | 166 kts | 278° |
| 2026-05-08 14:49 | 30.92626 | -102.84722 | 12000 ft | 166 kts | 278° |
| 2026-05-08 14:49 | 30.92891 | -102.86038 | 12000 ft | 166 kts | 278° |
| 2026-05-08 14:50 | 30.93156 | -102.87344 | 12000 ft | 166 kts | 278° |
| 2026-05-08 14:50 | 30.93420 | -102.88650 | 11999 ft | 166 kts | 278° |
| 2026-05-08 14:50 | 30.93683 | -102.89957 | 11999 ft | 166 kts | 279° |
| 2026-05-08 14:50 | 30.93947 | -102.91264 | 11999 ft | 166 kts | 278° |
| 2026-05-08 14:51 | 30.94211 | -102.92570 | 12000 ft | 166 kts | 278° |
| 2026-05-08 14:51 | 30.94473 | -102.93877 | 11999 ft | 166 kts | 278° |
| 2026-05-08 14:51 | 30.94739 | -102.95192 | 11999 ft | 166 kts | 278° |
| 2026-05-08 14:51 | 30.95003 | -102.96500 | 12000 ft | 166 kts | 278° |
| 2026-05-08 14:52 | 30.95274 | -102.97806 | 11998 ft | 167 kts | 281° |
| 2026-05-08 14:52 | 30.95975 | -103.00381 | 12001 ft | 167 kts | 283° |
| 2026-05-08 14:52 | 30.96325 | -103.01669 | 12000 ft | 167 kts | 282° |
| 2026-05-08 14:53 | 30.96676 | -103.02957 | 12001 ft | 167 kts | 283° |
| 2026-05-08 14:53 | 30.97029 | -103.04254 | 12001 ft | 167 kts | 282° |
| 2026-05-08 14:53 | 30.97377 | -103.05541 | 12001 ft | 167 kts | 282° |
| 2026-05-08 14:53 | 30.97725 | -103.06831 | 12001 ft | 168 kts | 282° |
| 2026-05-08 14:54 | 30.98075 | -103.08121 | 12001 ft | 168 kts | 282° |
| 2026-05-08 14:54 | 30.98424 | -103.09411 | 12002 ft | 168 kts | 282° |
| 2026-05-08 14:54 | 30.98772 | -103.10701 | 12001 ft | 168 kts | 282° |
| 2026-05-08 14:54 | 30.99120 | -103.11992 | 12003 ft | 168 kts | 282° |
| 2026-05-08 14:55 | 30.99470 | -103.13293 | 12003 ft | 168 kts | 282° |
| 2026-05-08 14:55 | 30.99818 | -103.14584 | 12003 ft | 168 kts | 282° |
| 2026-05-08 14:55 | 31.00166 | -103.15874 | 12004 ft | 168 kts | 282° |
| 2026-05-08 14:55 | 31.00513 | -103.17166 | 12005 ft | 168 kts | 282° |
| 2026-05-08 14:56 | 31.00860 | -103.18458 | 12005 ft | 168 kts | 282° |
| 2026-05-08 14:56 | 31.01208 | -103.19749 | 12007 ft | 168 kts | 282° |
| 2026-05-08 14:56 | 31.01555 | -103.21042 | 12007 ft | 168 kts | 282° |
| 2026-05-08 14:56 | 31.01905 | -103.22343 | 12009 ft | 168 kts | 282° |
| 2026-05-08 14:57 | 31.02253 | -103.23634 | 12014 ft | 167 kts | 282° |
| 2026-05-08 14:57 | 31.02598 | -103.24923 | 12020 ft | 167 kts | 282° |
| 2026-05-08 14:57 | 31.02943 | -103.26212 | 12026 ft | 167 kts | 282° |
| 2026-05-08 14:57 | 31.03289 | -103.27502 | 12032 ft | 167 kts | 282° |
| 2026-05-08 14:58 | 31.03635 | -103.28790 | 12033 ft | 167 kts | 282° |
| 2026-05-08 14:58 | 31.03980 | -103.30080 | 12034 ft | 168 kts | 282° |
| 2026-05-08 14:58 | 31.04328 | -103.31382 | 12035 ft | 168 kts | 282° |
| 2026-05-08 14:58 | 31.04675 | -103.32676 | 12036 ft | 168 kts | 282° |
| 2026-05-08 14:59 | 31.05021 | -103.33970 | 12036 ft | 168 kts | 282° |
| 2026-05-08 14:59 | 31.05713 | -103.36558 | 12039 ft | 168 kts | 282° |
| 2026-05-08 14:59 | 31.06059 | -103.37854 | 12039 ft | 168 kts | 282° |
| 2026-05-08 15:00 | 31.06406 | -103.39148 | 12039 ft | 168 kts | 282° |
| 2026-05-08 15:00 | 31.06754 | -103.40453 | 12039 ft | 168 kts | 282° |
| 2026-05-08 15:00 | 31.07099 | -103.41747 | 12039 ft | 168 kts | 282° |
| 2026-05-08 15:00 | 31.07445 | -103.43043 | 12039 ft | 168 kts | 282° |
| 2026-05-08 15:01 | 31.07791 | -103.44340 | 12039 ft | 168 kts | 282° |
| 2026-05-08 15:01 | 31.08137 | -103.45636 | 12039 ft | 168 kts | 282° |
| 2026-05-08 15:01 | 31.08483 | -103.46934 | 12040 ft | 168 kts | 282° |
| 2026-05-08 15:01 | 31.08829 | -103.48235 | 12041 ft | 168 kts | 282° |
| 2026-05-08 15:02 | 31.09177 | -103.49544 | 12041 ft | 169 kts | 282° |
| 2026-05-08 15:02 | 31.09523 | -103.50845 | 12040 ft | 169 kts | 282° |
| 2026-05-08 15:02 | 31.09869 | -103.52144 | 12041 ft | 169 kts | 282° |
| 2026-05-08 15:02 | 31.10216 | -103.53450 | 12040 ft | 169 kts | 282° |
| 2026-05-08 15:03 | 31.10562 | -103.54750 | 12041 ft | 169 kts | 282° |
| 2026-05-08 15:03 | 31.10907 | -103.56051 | 12042 ft | 168 kts | 282° |
| 2026-05-08 15:03 | 31.11251 | -103.57350 | 12044 ft | 168 kts | 282° |
| 2026-05-08 15:03 | 31.11598 | -103.58658 | 12045 ft | 168 kts | 282° |
| 2026-05-08 15:04 | 31.11942 | -103.59957 | 12045 ft | 168 kts | 282° |
| 2026-05-08 15:04 | 31.12287 | -103.61257 | 12046 ft | 168 kts | 282° |
| 2026-05-08 15:04 | 31.12631 | -103.62555 | 12047 ft | 168 kts | 282° |
| 2026-05-08 15:04 | 31.12975 | -103.63854 | 12047 ft | 168 kts | 282° |
| 2026-05-08 15:05 | 31.13319 | -103.65152 | 12048 ft | 168 kts | 282° |
| 2026-05-08 15:05 | 31.13663 | -103.66454 | 12052 ft | 168 kts | 282° |
| 2026-05-08 15:05 | 31.14009 | -103.67765 | 12053 ft | 169 kts | 282° |
| 2026-05-08 15:05 | 31.14354 | -103.69069 | 12053 ft | 169 kts | 282° |
| 2026-05-08 15:06 | 31.14699 | -103.70374 | 12054 ft | 169 kts | 282° |
| 2026-05-08 15:06 | 31.15044 | -103.71679 | 12055 ft | 169 kts | 282° |
| 2026-05-08 15:06 | 31.15388 | -103.72984 | 12055 ft | 169 kts | 282° |
| 2026-05-08 15:06 | 31.15733 | -103.74288 | 12057 ft | 169 kts | 282° |
| 2026-05-08 15:07 | 31.16078 | -103.75594 | 12059 ft | 169 kts | 282° |
| 2026-05-08 15:07 | 31.16422 | -103.76908 | 12064 ft | 169 kts | 282° |
| 2026-05-08 15:07 | 31.16768 | -103.78212 | 12067 ft | 169 kts | 282° |
| 2026-05-08 15:07 | 31.17112 | -103.79518 | 12070 ft | 169 kts | 282° |
| 2026-05-08 15:08 | 31.17455 | -103.80823 | 12072 ft | 169 kts | 282° |
| 2026-05-08 15:08 | 31.17684 | -103.81691 | 12072 ft | 169 kts | 282° |
| 2026-05-08 15:08 | 31.18143 | -103.83437 | 12075 ft | 169 kts | 282° |
| 2026-05-08 15:08 | 31.18486 | -103.84744 | 12076 ft | 169 kts | 282° |
| 2026-05-08 15:09 | 31.18833 | -103.86062 | 12077 ft | 169 kts | 282° |
| 2026-05-08 15:09 | 31.19176 | -103.87368 | 12078 ft | 169 kts | 282° |
| 2026-05-08 15:09 | 31.19519 | -103.88676 | 12080 ft | 169 kts | 282° |
| 2026-05-08 15:09 | 31.19863 | -103.89986 | 12078 ft | 169 kts | 282° |
| 2026-05-08 15:10 | 31.20206 | -103.91296 | 12078 ft | 170 kts | 283° |
| 2026-05-08 15:10 | 31.20549 | -103.92610 | 12079 ft | 170 kts | 283° |
| 2026-05-08 15:10 | 31.20895 | -103.93929 | 12081 ft | 171 kts | 283° |
| 2026-05-08 15:10 | 31.21245 | -103.95266 | 12080 ft | 172 kts | 283° |
| 2026-05-08 15:11 | 31.21593 | -103.96595 | 12082 ft | 172 kts | 283° |
| 2026-05-08 15:11 | 31.21942 | -103.97926 | 12084 ft | 172 kts | 283° |
| 2026-05-08 15:11 | 31.22291 | -103.99260 | 12086 ft | 173 kts | 284° |
| 2026-05-08 15:11 | 31.22640 | -104.00597 | 12093 ft | 173 kts | 284° |
| 2026-05-08 15:12 | 31.22990 | -104.01935 | 12096 ft | 173 kts | 284° |
| 2026-05-08 15:12 | 31.23341 | -104.03278 | 12097 ft | 174 kts | 284° |
| 2026-05-08 15:12 | 31.23695 | -104.04633 | 12098 ft | 174 kts | 284° |
| 2026-05-08 15:12 | 31.24047 | -104.05982 | 12099 ft | 174 kts | 284° |
| 2026-05-08 15:13 | 31.24400 | -104.07333 | 12098 ft | 175 kts | 284° |
| 2026-05-08 15:13 | 31.24753 | -104.08689 | 12097 ft | 175 kts | 284° |
| 2026-05-08 15:13 | 31.25106 | -104.10047 | 12096 ft | 176 kts | 284° |
| 2026-05-08 15:13 | 31.25462 | -104.11411 | 12094 ft | 176 kts | 284° |
| 2026-05-08 15:14 | 31.25817 | -104.12775 | 12095 ft | 176 kts | 284° |
| 2026-05-08 15:14 | 31.26175 | -104.14149 | 12097 ft | 176 kts | 284° |
| 2026-05-08 15:14 | 31.26530 | -104.15513 | 12098 ft | 176 kts | 284° |
| 2026-05-08 15:14 | 31.26885 | -104.16878 | 12100 ft | 176 kts | 284° |
| 2026-05-08 15:15 | 31.27239 | -104.18242 | 12102 ft | 176 kts | 284° |
| 2026-05-08 15:15 | 31.27593 | -104.19606 | 12104 ft | 176 kts | 284° |
| 2026-05-08 15:15 | 31.27947 | -104.20970 | 12105 ft | 176 kts | 284° |
| 2026-05-08 15:15 | 31.28302 | -104.22335 | 12104 ft | 176 kts | 284° |
| 2026-05-08 15:16 | 31.28659 | -104.23714 | 12089 ft | 177 kts | 284° |
| 2026-05-08 15:16 | 31.29015 | -104.25087 | 12071 ft | 178 kts | 284° |
| 2026-05-08 15:16 | 31.29372 | -104.26465 | 12053 ft | 178 kts | 284° |
| 2026-05-08 15:16 | 31.29730 | -104.27845 | 12039 ft | 178 kts | 284° |
| 2026-05-08 15:17 | 31.30086 | -104.29221 | 12040 ft | 177 kts | 284° |
| 2026-05-08 15:17 | 31.30440 | -104.30591 | 12044 ft | 177 kts | 284° |
| 2026-05-08 15:17 | 31.30794 | -104.31959 | 12049 ft | 176 kts | 284° |
| 2026-05-08 15:17 | 31.31150 | -104.33335 | 12053 ft | 176 kts | 284° |
| 2026-05-08 15:18 | 31.31502 | -104.34698 | 12057 ft | 176 kts | 284° |
| 2026-05-08 15:18 | 31.31854 | -104.36062 | 12060 ft | 176 kts | 285° |
| 2026-05-08 15:18 | 31.32206 | -104.37427 | 12064 ft | 176 kts | 285° |
| 2026-05-08 15:18 | 31.32559 | -104.38795 | 12067 ft | 176 kts | 285° |
| 2026-05-08 15:19 | 31.32911 | -104.40161 | 12071 ft | 176 kts | 285° |
| 2026-05-08 15:19 | 31.33263 | -104.41528 | 12075 ft | 176 kts | 285° |
| 2026-05-08 15:19 | 31.33618 | -104.42905 | 12080 ft | 176 kts | 285° |
| 2026-05-08 15:19 | 31.33971 | -104.44276 | 12084 ft | 176 kts | 285° |
| 2026-05-08 15:20 | 31.34323 | -104.45643 | 12087 ft | 176 kts | 285° |
| 2026-05-08 15:20 | 31.34675 | -104.47013 | 12090 ft | 176 kts | 285° |
| 2026-05-08 15:20 | 31.35027 | -104.48380 | 12094 ft | 176 kts | 285° |
| 2026-05-08 15:20 | 31.35379 | -104.49750 | 12097 ft | 176 kts | 285° |
| 2026-05-08 15:21 | 31.35730 | -104.51119 | 12098 ft | 177 kts | 285° |
| 2026-05-08 15:21 | 31.36085 | -104.52500 | 12095 ft | 177 kts | 285° |
| 2026-05-08 15:21 | 31.36437 | -104.53874 | 12092 ft | 177 kts | 285° |
| 2026-05-08 15:21 | 31.36791 | -104.55251 | 12079 ft | 177 kts | 285° |
| 2026-05-08 15:22 | 31.37142 | -104.56624 | 12070 ft | 177 kts | 285° |
| 2026-05-08 15:22 | 31.37493 | -104.57994 | 12062 ft | 176 kts | 285° |
| 2026-05-08 15:22 | 31.37843 | -104.59361 | 12054 ft | 176 kts | 285° |
| 2026-05-08 15:22 | 31.38193 | -104.60727 | 12055 ft | 176 kts | 285° |
| 2026-05-08 15:23 | 31.38545 | -104.62104 | 12054 ft | 176 kts | 285° |
| 2026-05-08 15:23 | 31.38895 | -104.63474 | 12051 ft | 177 kts | 285° |
| 2026-05-08 15:23 | 31.39246 | -104.64846 | 12048 ft | 177 kts | 285° |
| 2026-05-08 15:23 | 31.39597 | -104.66220 | 12047 ft | 177 kts | 284° |
| 2026-05-08 15:24 | 31.39948 | -104.67595 | 12044 ft | 177 kts | 284° |
| 2026-05-08 15:24 | 31.40299 | -104.68971 | 12041 ft | 177 kts | 284° |
| 2026-05-08 15:24 | 31.40651 | -104.70349 | 12038 ft | 178 kts | 284° |
| 2026-05-08 15:24 | 31.41005 | -104.71740 | 12035 ft | 178 kts | 284° |
| 2026-05-08 15:25 | 31.41357 | -104.73122 | 12033 ft | 178 kts | 284° |
| 2026-05-08 15:25 | 31.41709 | -104.74502 | 12030 ft | 178 kts | 284° |
| 2026-05-08 15:25 | 31.42061 | -104.75886 | 12028 ft | 178 kts | 284° |
| 2026-05-08 15:25 | 31.42413 | -104.77268 | 12034 ft | 178 kts | 284° |
| 2026-05-08 15:26 | 31.42763 | -104.78646 | 12041 ft | 177 kts | 284° |
| 2026-05-08 15:26 | 31.43113 | -104.80023 | 12049 ft | 177 kts | 284° |
| 2026-05-08 15:26 | 31.43465 | -104.81408 | 12056 ft | 177 kts | 284° |
| 2026-05-08 15:26 | 31.43815 | -104.82784 | 12064 ft | 177 kts | 284° |
| 2026-05-08 15:27 | 31.44164 | -104.84160 | 12071 ft | 177 kts | 284° |
| 2026-05-08 15:27 | 31.44512 | -104.85534 | 12079 ft | 177 kts | 284° |
| 2026-05-08 15:27 | 31.44861 | -104.86909 | 12087 ft | 177 kts | 284° |
| 2026-05-08 15:27 | 31.45209 | -104.88285 | 12080 ft | 177 kts | 285° |
| 2026-05-08 15:28 | 31.45557 | -104.89660 | 12067 ft | 177 kts | 285° |
| 2026-05-08 15:28 | 31.45908 | -104.91053 | 12034 ft | 178 kts | 285° |
| 2026-05-08 15:28 | 31.46259 | -104.92439 | 12022 ft | 178 kts | 286° |
| 2026-05-08 15:28 | 31.46609 | -104.93826 | 12025 ft | 178 kts | 286° |
| 2026-05-08 15:29 | 31.46961 | -104.95214 | 12021 ft | 179 kts | 286° |
| 2026-05-08 15:29 | 31.47314 | -104.96609 | 12014 ft | 180 kts | 286° |
| 2026-05-08 15:29 | 31.47668 | -104.98009 | 12006 ft | 180 kts | 286° |
| 2026-05-08 15:29 | 31.48023 | -104.99415 | 12000 ft | 181 kts | 286° |
| 2026-05-08 15:30 | 31.48380 | -105.00828 | 12001 ft | 180 kts | 286° |
| 2026-05-08 15:30 | 31.48734 | -105.02231 | 11995 ft | 180 kts | 286° |
| 2026-05-08 15:30 | 31.49087 | -105.03634 | 11989 ft | 180 kts | 286° |
| 2026-05-08 15:30 | 31.49441 | -105.05038 | 11983 ft | 180 kts | 286° |
| 2026-05-08 15:31 | 31.49794 | -105.06439 | 11976 ft | 180 kts | 286° |
| 2026-05-08 15:31 | 31.50147 | -105.07843 | 11969 ft | 180 kts | 286° |
| 2026-05-08 15:31 | 31.50500 | -105.09245 | 11962 ft | 180 kts | 286° |
| 2026-05-08 15:31 | 31.50855 | -105.10660 | 11954 ft | 180 kts | 286° |
| 2026-05-08 15:32 | 31.51208 | -105.12064 | 11946 ft | 180 kts | 286° |
| 2026-05-08 15:32 | 31.51560 | -105.13467 | 11939 ft | 180 kts | 286° |
| 2026-05-08 15:32 | 31.51913 | -105.14870 | 11933 ft | 180 kts | 286° |
| 2026-05-08 15:32 | 31.52265 | -105.16275 | 11927 ft | 180 kts | 287° |
| 2026-05-08 15:33 | 31.52617 | -105.17679 | 11921 ft | 180 kts | 287° |
| 2026-05-08 15:33 | 31.52969 | -105.19083 | 11915 ft | 180 kts | 287° |
| 2026-05-08 15:33 | 31.53323 | -105.20497 | 11909 ft | 180 kts | 287° |
| 2026-05-08 15:33 | 31.53675 | -105.21903 | 11904 ft | 180 kts | 287° |
| 2026-05-08 15:34 | 31.54026 | -105.23307 | 11899 ft | 180 kts | 287° |
| 2026-05-08 15:34 | 31.54378 | -105.24712 | 11894 ft | 180 kts | 287° |
| 2026-05-08 15:34 | 31.54729 | -105.26116 | 11892 ft | 180 kts | 287° |
| 2026-05-08 15:34 | 31.55080 | -105.27521 | 11893 ft | 180 kts | 287° |
| 2026-05-08 15:35 | 31.55430 | -105.28924 | 11895 ft | 180 kts | 287° |
| 2026-05-08 15:35 | 31.55783 | -105.30339 | 11896 ft | 180 kts | 287° |
| 2026-05-08 15:35 | 31.56133 | -105.31742 | 11897 ft | 180 kts | 287° |
| 2026-05-08 15:35 | 31.56483 | -105.33145 | 11898 ft | 180 kts | 287° |
| 2026-05-08 15:36 | 31.56833 | -105.34548 | 11899 ft | 180 kts | 287° |
| 2026-05-08 15:36 | 31.57065 | -105.35480 | 11900 ft | 180 kts | 287° |
| 2026-05-08 15:36 | 31.57531 | -105.37355 | 11902 ft | 180 kts | 287° |
| 2026-05-08 15:36 | 31.57881 | -105.38761 | 11903 ft | 180 kts | 287° |
| 2026-05-08 15:37 | 31.58234 | -105.40180 | 11905 ft | 181 kts | 287° |
| 2026-05-08 15:37 | 31.58584 | -105.41588 | 11905 ft | 181 kts | 287° |
| 2026-05-08 15:37 | 31.58934 | -105.42998 | 11906 ft | 181 kts | 287° |
| 2026-05-08 15:37 | 31.59285 | -105.44408 | 11907 ft | 181 kts | 287° |
| 2026-05-08 15:38 | 31.59635 | -105.45819 | 11908 ft | 181 kts | 287° |
| 2026-05-08 15:38 | 31.59985 | -105.47230 | 11909 ft | 181 kts | 287° |
| 2026-05-08 15:38 | 31.60335 | -105.48642 | 11911 ft | 181 kts | 287° |
| 2026-05-08 15:38 | 31.60687 | -105.50065 | 11929 ft | 181 kts | 287° |
| 2026-05-08 15:39 | 31.61038 | -105.51479 | 11953 ft | 181 kts | 287° |
| 2026-05-08 15:39 | 31.61389 | -105.52896 | 11977 ft | 182 kts | 287° |
| 2026-05-08 15:39 | 31.61741 | -105.54315 | 12000 ft | 182 kts | 286° |
| 2026-05-08 15:39 | 31.62092 | -105.55737 | 12010 ft | 182 kts | 286° |
| 2026-05-08 15:40 | 31.62443 | -105.57158 | 12026 ft | 182 kts | 286° |
| 2026-05-08 15:40 | 31.62792 | -105.58574 | 12047 ft | 181 kts | 286° |
| 2026-05-08 15:40 | 31.63144 | -105.59999 | 12068 ft | 181 kts | 287° |
| 2026-05-08 15:40 | 31.63493 | -105.61410 | 12086 ft | 181 kts | 287° |
| 2026-05-08 15:41 | 31.63842 | -105.62827 | 12091 ft | 182 kts | 287° |
| 2026-05-08 15:41 | 31.64192 | -105.64248 | 12093 ft | 182 kts | 287° |
| 2026-05-08 15:41 | 31.64543 | -105.65673 | 12095 ft | 183 kts | 286° |
| 2026-05-08 15:41 | 31.64894 | -105.67101 | 12096 ft | 183 kts | 286° |
| 2026-05-08 15:42 | 31.65246 | -105.68527 | 12098 ft | 183 kts | 286° |
| 2026-05-08 15:42 | 31.65599 | -105.69962 | 12101 ft | 182 kts | 286° |
| 2026-05-08 15:42 | 31.65949 | -105.71386 | 12104 ft | 182 kts | 286° |
| 2026-05-08 15:42 | 31.66299 | -105.72810 | 12107 ft | 182 kts | 286° |
| 2026-05-08 15:43 | 31.66648 | -105.74234 | 12109 ft | 182 kts | 286° |
| 2026-05-08 15:43 | 31.66998 | -105.75660 | 12112 ft | 182 kts | 286° |
| 2026-05-08 15:43 | 31.67347 | -105.77084 | 12110 ft | 183 kts | 287° |
| 2026-05-08 15:43 | 31.67698 | -105.78514 | 12107 ft | 183 kts | 287° |
| 2026-05-08 15:44 | 31.68053 | -105.79962 | 12019 ft | 188 kts | 287° |
| 2026-05-08 15:44 | 31.68422 | -105.81461 | 11823 ft | 194 kts | 287° |
| 2026-05-08 15:44 | 31.68797 | -105.82989 | 11609 ft | 195 kts | 287° |
| 2026-05-08 15:44 | 31.69167 | -105.84507 | 11386 ft | 193 kts | 287° |
| 2026-05-08 15:45 | 31.69533 | -105.86009 | 11168 ft | 192 kts | 287° |
| 2026-05-08 15:45 | 31.69900 | -105.87513 | 10952 ft | 191 kts | 287° |
| 2026-05-08 15:45 | 31.70265 | -105.89009 | 10739 ft | 190 kts | 287° |
| 2026-05-08 15:45 | 31.70633 | -105.90516 | 10524 ft | 190 kts | 287° |
| 2026-05-08 15:46 | 31.70995 | -105.91999 | 10313 ft | 190 kts | 287° |
| 2026-05-08 15:46 | 31.71356 | -105.93478 | 10103 ft | 189 kts | 287° |
| 2026-05-08 15:46 | 31.71807 | -105.94918 | 9885 ft | 189 kts | 295° |
| 2026-05-08 15:46 | 31.72329 | -105.96321 | 9675 ft | 188 kts | 294° |
| 2026-05-08 15:47 | 31.72842 | -105.97729 | 9464 ft | 188 kts | 294° |
| 2026-05-08 15:47 | 31.73351 | -105.99136 | 9255 ft | 188 kts | 294° |
| 2026-05-08 15:47 | 31.73863 | -106.00554 | 9042 ft | 188 kts | 294° |
| 2026-05-08 15:47 | 31.74369 | -106.01958 | 8832 ft | 187 kts | 294° |
| 2026-05-08 15:48 | 31.75377 | -106.04756 | 8415 ft | 186 kts | 294° |
| 2026-05-08 15:48 | 31.75879 | -106.06152 | 8207 ft | 186 kts | 294° |
| 2026-05-08 15:48 | 31.76380 | -106.07544 | 7999 ft | 186 kts | 294° |
| 2026-05-08 15:49 | 31.76880 | -106.08933 | 7793 ft | 185 kts | 294° |
| 2026-05-08 15:49 | 31.77382 | -106.10330 | 7585 ft | 185 kts | 294° |
| 2026-05-08 15:49 | 31.77881 | -106.11716 | 7379 ft | 185 kts | 294° |
| 2026-05-08 15:49 | 31.78377 | -106.13100 | 7172 ft | 185 kts | 294° |
| 2026-05-08 15:50 | 31.78871 | -106.14475 | 6975 ft | 181 kts | 294° |
| 2026-05-08 15:50 | 31.79091 | -106.15870 | 6931 ft | 169 kts | 272° |
| 2026-05-08 15:50 | 31.79135 | -106.17205 | 6926 ft | 160 kts | 274° |
| 2026-05-08 15:50 | 31.79192 | -106.18471 | 6942 ft | 150 kts | 274° |
| 2026-05-08 15:51 | 31.79252 | -106.19702 | 6721 ft | 148 kts | 274° |
| 2026-05-08 15:51 | 31.79313 | -106.20885 | 6512 ft | 143 kts | 274° |
| 2026-05-08 15:51 | 31.79371 | -106.22022 | 6311 ft | 137 kts | 273° |
| 2026-05-08 15:51 | 31.79426 | -106.23093 | 6112 ft | 125 kts | 273° |
| 2026-05-08 15:52 | 31.79475 | -106.24066 | 5921 ft | 114 kts | 272° |
| 2026-05-08 15:52 | 31.79520 | -106.24955 | 5743 ft | 104 kts | 272° |
| 2026-05-08 15:52 | 31.79561 | -106.25765 | 5592 ft | 96 kts | 271° |
| 2026-05-08 15:52 | 31.79599 | -106.26539 | 5484 ft | 94 kts | 271° |
| 2026-05-08 15:53 | 31.79634 | -106.27305 | 5384 ft | 95 kts | 271° |
| 2026-05-08 15:53 | 31.79671 | -106.28082 | 5280 ft | 96 kts | 271° |
| 2026-05-08 15:53 | 31.79705 | -106.28866 | 5163 ft | 97 kts | 271° |
| 2026-05-08 15:53 | 31.79741 | -106.29652 | 5038 ft | 97 kts | 271° |
| 2026-05-08 15:54 | 31.79781 | -106.30437 | 4912 ft | 97 kts | 271° |
| 2026-05-08 15:54 | 31.79821 | -106.31224 | 4786 ft | 97 kts | 271° |
| 2026-05-08 15:54 | 31.79861 | -106.32023 | 4660 ft | 98 kts | 271° |
| 2026-05-08 15:54 | 31.79901 | -106.32825 | 4535 ft | 99 kts | 272° |
| 2026-05-08 15:55 | 31.79942 | -106.33625 | 4421 ft | 98 kts | 273° |
| 2026-05-08 15:55 | 31.80022 | -106.35210 | 4182 ft | 97 kts | 277° |
| 2026-05-08 15:55 | 31.80056 | -106.36004 | 4028 ft | 99 kts | 277° |
| 2026-05-08 15:56 | 31.80086 | -106.36779 | 3957 ft | 86 kts | 285° |
| 2026-05-08 15:56 | 31.80119 | -106.37207 | 3951 ft | 34 kts | 277° |
| 2026-05-08 15:56 | 31.80135 | -106.37469 | 3947 ft | 30 kts | 276° |
| 2026-05-08 15:56 | 31.80143 | -106.37669 | 3946 ft | 17 kts | 263° |
| 2026-05-08 15:57 | 31.80066 | -106.37743 | 3944 ft | 16 kts | 184° |
| 2026-05-08 15:57 | 31.79971 | -106.37750 | 3944 ft | 11 kts | 182° |
| 2026-05-08 15:57 | 31.79886 | -106.37753 | 3944 ft | 13 kts | 194° |
| 2026-05-08 15:57 | 31.79806 | -106.37799 | 3943 ft | 8 kts | 171° |
| 2026-05-08 15:58 | 31.79762 | -106.37758 | 3945 ft | 8 kts | 139° |
| 2026-05-08 15:58 | 31.79732 | -106.37769 | 3945 ft | 0 kts | 239° |
| 2026-05-08 15:58 | 31.79731 | -106.37772 | 3945 ft | 0 kts | 237° |